createdAt,value
2022-10-10T00:00:44.779Z,0.00
2022-10-10T00:01:40.148Z,0.00
2022-10-10T00:02:35.407Z,0.00
2022-10-10T00:03:30.657Z,0.00
2022-10-10T00:04:25.879Z,0.00
2022-10-10T00:05:21.117Z,0.00
2022-10-10T00:06:16.283Z,0.00
2022-10-10T00:07:11.604Z,0.00
2022-10-10T00:08:09.292Z,0.00
2022-10-10T00:09:04.486Z,0.00
2022-10-10T00:09:59.672Z,0.00
2022-10-10T00:10:54.883Z,0.00
2022-10-10T00:11:50.164Z,0.00
2022-10-10T00:12:45.509Z,0.00
2022-10-10T00:13:40.576Z,0.00
2022-10-10T00:14:35.766Z,0.00
2022-10-10T00:15:31.031Z,0.00
2022-10-10T00:16:26.972Z,0.00
2022-10-10T00:17:22.233Z,0.00
2022-10-10T00:18:18.006Z,0.00
2022-10-10T00:19:13.230Z,0.00
2022-10-10T00:20:08.595Z,0.00
2022-10-10T00:21:04.273Z,0.00
2022-10-10T00:21:59.487Z,0.00
2022-10-10T00:22:54.680Z,0.00
2022-10-10T00:23:51.083Z,0.00
2022-10-10T00:24:46.333Z,0.00
2022-10-10T00:25:42.040Z,0.00
2022-10-10T00:26:37.349Z,0.00
2022-10-10T00:27:32.537Z,0.00
2022-10-10T00:28:28.486Z,0.00
2022-10-10T00:29:23.669Z,0.00
2022-10-10T00:30:19.445Z,0.00
2022-10-10T00:31:14.631Z,0.00
2022-10-10T00:32:10.022Z,0.00
2022-10-10T00:33:05.769Z,0.00
2022-10-10T00:34:01.024Z,0.00
2022-10-10T00:34:56.246Z,0.00
2022-10-10T00:35:52.533Z,0.00
2022-10-10T00:36:47.754Z,0.00
2022-10-10T00:37:43.516Z,0.00
2022-10-10T00:38:38.764Z,0.00
2022-10-10T00:39:34.027Z,0.00
2022-10-10T00:40:29.864Z,0.00
2022-10-10T00:41:25.098Z,0.00
2022-10-10T00:42:21.033Z,0.00
2022-10-10T00:43:16.113Z,0.00
2022-10-10T00:44:11.314Z,0.00
2022-10-10T00:45:07.112Z,0.00
2022-10-10T00:46:02.365Z,0.00
2022-10-10T00:46:57.722Z,0.00
2022-10-10T00:47:54.054Z,0.00
2022-10-10T00:48:49.302Z,0.00
2022-10-10T00:49:45.122Z,0.00
2022-10-10T00:50:40.393Z,0.00
2022-10-10T00:51:35.765Z,0.00
2022-10-10T00:52:31.436Z,0.00
2022-10-10T00:53:26.729Z,0.00
2022-10-10T00:54:22.534Z,0.00
2022-10-10T00:55:17.679Z,0.00
2022-10-10T00:56:13.062Z,0.00
2022-10-10T00:57:08.752Z,0.00
2022-10-10T00:58:04.037Z,0.00
2022-10-10T00:58:59.299Z,0.00
2022-10-10T00:59:55.767Z,0.00
2022-10-10T01:00:51.059Z,0.00
2022-10-10T01:01:46.856Z,0.00
2022-10-10T01:02:42.136Z,0.00
2022-10-10T01:03:37.414Z,0.00
2022-10-10T01:04:33.167Z,0.00
2022-10-10T01:05:28.427Z,0.00
2022-10-10T01:06:24.198Z,0.00
2022-10-10T01:07:19.455Z,0.00
2022-10-10T01:08:14.859Z,0.00
2022-10-10T01:09:10.633Z,0.00
2022-10-10T01:10:05.887Z,0.00
2022-10-10T01:11:01.243Z,0.00
2022-10-10T01:11:57.449Z,0.00
2022-10-10T01:12:52.997Z,0.00
2022-10-10T01:13:48.520Z,0.00
2022-10-10T01:14:43.778Z,0.00
2022-10-10T01:15:39.012Z,0.00
2022-10-10T01:16:34.264Z,0.00
2022-10-10T01:17:29.520Z,0.00
2022-10-10T01:18:25.342Z,0.00
2022-10-10T01:19:20.668Z,0.00
2022-10-10T01:20:15.828Z,0.00
2022-10-10T01:21:12.170Z,0.00
2022-10-10T01:22:07.418Z,0.00
2022-10-10T01:23:03.212Z,0.00
2022-10-10T01:23:58.449Z,0.00
2022-10-10T01:24:53.694Z,0.00
2022-10-10T01:25:49.535Z,0.00
2022-10-10T01:26:44.759Z,0.00
2022-10-10T01:27:40.674Z,0.00
2022-10-10T01:28:35.734Z,0.00
2022-10-10T01:29:31.016Z,0.00
2022-10-10T01:30:26.890Z,0.00
2022-10-10T01:31:22.137Z,0.00
2022-10-10T01:32:17.480Z,0.00
2022-10-10T01:33:12.525Z,0.00
2022-10-10T01:34:07.755Z,0.00
2022-10-10T01:35:02.912Z,0.00
2022-10-10T01:35:57.891Z,0.00
2022-10-10T01:36:56.665Z,0.00
2022-10-10T01:37:51.750Z,0.00
2022-10-10T01:38:47.004Z,0.00
2022-10-10T01:39:42.278Z,0.00
2022-10-10T01:40:37.358Z,0.00
2022-10-10T01:41:32.452Z,0.00
2022-10-10T01:42:27.445Z,0.00
2022-10-10T01:43:22.525Z,0.00
2022-10-10T01:44:20.481Z,0.00
2022-10-10T01:45:12.742Z,0.00
2022-10-10T01:46:07.742Z,0.00
2022-10-10T01:47:02.821Z,0.00
2022-10-10T01:47:57.903Z,0.00
2022-10-10T01:48:53.051Z,0.00
2022-10-10T01:49:48.162Z,0.00
2022-10-10T01:50:43.402Z,0.00
2022-10-10T01:51:38.398Z,0.00
2022-10-10T01:52:33.502Z,0.00
2022-10-10T01:53:28.520Z,0.00
2022-10-10T01:54:23.545Z,0.00
2022-10-10T01:55:18.489Z,0.00
2022-10-10T01:56:13.577Z,0.00
2022-10-10T01:57:08.817Z,0.00
2022-10-10T01:58:03.767Z,0.00
2022-10-10T01:58:58.877Z,0.00
2022-10-10T01:59:53.951Z,0.00
2022-10-10T02:00:49.087Z,0.00
2022-10-10T02:01:44.154Z,0.00
2022-10-10T02:02:39.227Z,0.00
2022-10-10T02:03:34.333Z,0.00
2022-10-10T02:04:29.584Z,0.00
2022-10-10T02:05:24.424Z,0.00
2022-10-10T02:06:19.507Z,0.00
2022-10-10T02:07:14.602Z,0.00
2022-10-10T02:08:09.709Z,0.00
2022-10-10T02:09:04.805Z,0.00
2022-10-10T02:10:00.192Z,0.00
2022-10-10T02:10:55.316Z,0.00
2022-10-10T02:11:50.578Z,0.00
2022-10-10T02:12:45.822Z,0.00
2022-10-10T02:13:41.091Z,0.00
2022-10-10T02:14:36.324Z,0.00
2022-10-10T02:15:31.581Z,0.00
2022-10-10T02:16:26.784Z,0.00
2022-10-10T02:17:22.138Z,0.00
2022-10-10T02:18:17.252Z,0.00
2022-10-10T02:19:12.518Z,0.00
2022-10-10T02:20:07.781Z,0.00
2022-10-10T02:21:03.154Z,0.00
2022-10-10T02:21:58.358Z,0.00
2022-10-10T02:22:53.872Z,0.00
2022-10-10T02:23:49.004Z,0.00
2022-10-10T02:24:44.110Z,0.00
2022-10-10T02:25:39.471Z,0.00
2022-10-10T02:26:34.700Z,0.00
2022-10-10T02:27:29.957Z,0.00
2022-10-10T02:28:25.310Z,0.00
2022-10-10T02:29:20.539Z,0.00
2022-10-10T02:30:15.662Z,0.00
2022-10-10T02:31:10.882Z,0.00
2022-10-10T02:32:06.126Z,0.00
2022-10-10T02:33:01.350Z,0.00
2022-10-10T02:33:56.874Z,0.00
2022-10-10T02:34:51.824Z,0.00
2022-10-10T02:35:47.051Z,0.00
2022-10-10T02:36:42.284Z,0.00
2022-10-10T02:37:37.505Z,0.00
2022-10-10T02:38:32.735Z,0.00
2022-10-10T02:39:30.564Z,0.00
2022-10-10T02:40:25.665Z,0.00
2022-10-10T02:41:20.873Z,0.00
2022-10-10T02:42:16.111Z,0.00
2022-10-10T02:43:11.479Z,0.00
2022-10-10T02:44:06.711Z,0.00
2022-10-10T02:45:01.700Z,0.00
2022-10-10T02:45:56.787Z,0.00
2022-10-10T02:46:51.911Z,0.00
2022-10-10T02:47:47.001Z,0.00
2022-10-10T02:48:42.209Z,0.00
2022-10-10T02:49:37.370Z,0.00
2022-10-10T02:50:32.327Z,0.00
2022-10-10T02:51:30.269Z,0.00
2022-10-10T02:52:22.516Z,0.00
2022-10-10T02:53:17.495Z,0.00
2022-10-10T02:54:12.706Z,0.00
2022-10-10T02:55:07.806Z,0.00
2022-10-10T02:56:02.812Z,0.00
2022-10-10T02:56:57.885Z,0.00
2022-10-10T02:57:52.935Z,0.00
2022-10-10T02:58:48.051Z,0.00
2022-10-10T02:59:43.181Z,0.00
2022-10-10T03:00:38.142Z,0.00
2022-10-10T03:01:33.250Z,0.00
2022-10-10T03:02:28.325Z,0.00
2022-10-10T03:03:24.406Z,0.00
2022-10-10T03:04:19.469Z,0.00
2022-10-10T03:05:14.693Z,0.00
2022-10-10T03:06:09.937Z,0.00
2022-10-10T03:07:05.151Z,0.00
2022-10-10T03:08:00.519Z,0.00
2022-10-10T03:08:55.705Z,0.00
2022-10-10T03:09:51.061Z,0.00
2022-10-10T03:10:46.303Z,0.00
2022-10-10T03:11:41.541Z,0.00
2022-10-10T03:12:36.756Z,0.00
2022-10-10T03:13:31.980Z,0.00
2022-10-10T03:14:27.230Z,0.00
2022-10-10T03:15:22.449Z,0.00
2022-10-10T03:16:17.712Z,0.00
2022-10-10T03:17:12.931Z,0.00
2022-10-10T03:18:08.288Z,0.00
2022-10-10T03:19:03.427Z,0.00
2022-10-10T03:19:58.647Z,0.00
2022-10-10T03:20:53.899Z,0.00
2022-10-10T03:21:49.146Z,0.00
2022-10-10T03:22:44.516Z,0.00
2022-10-10T03:23:39.746Z,0.00
2022-10-10T03:24:34.986Z,0.00
2022-10-10T03:25:30.519Z,0.00
2022-10-10T03:26:25.608Z,0.00
2022-10-10T03:27:20.829Z,0.00
2022-10-10T03:28:16.121Z,0.00
2022-10-10T03:29:11.353Z,0.00
2022-10-10T03:30:06.612Z,0.00
2022-10-10T03:31:01.858Z,0.00
2022-10-10T03:31:57.094Z,0.00
2022-10-10T03:32:52.800Z,0.00
2022-10-10T03:33:47.655Z,0.00
2022-10-10T03:34:43.013Z,0.00
2022-10-10T03:35:38.116Z,0.00
2022-10-10T03:36:33.403Z,0.00
2022-10-10T03:37:28.624Z,0.00
2022-10-10T03:38:23.850Z,0.00
2022-10-10T03:39:20.001Z,0.00
2022-10-10T03:40:14.391Z,0.00
2022-10-10T03:41:09.680Z,0.00
2022-10-10T03:42:04.952Z,0.00
2022-10-10T03:43:00.328Z,0.00
2022-10-10T03:43:55.419Z,0.00
2022-10-10T03:44:50.550Z,0.00
2022-10-10T03:45:45.524Z,0.00
2022-10-10T03:46:40.637Z,0.00
2022-10-10T03:47:35.738Z,0.00
2022-10-10T03:48:30.831Z,0.00
2022-10-10T03:49:25.826Z,0.00
2022-10-10T03:50:20.934Z,0.00
2022-10-10T03:51:15.909Z,0.00
2022-10-10T03:52:10.987Z,0.00
2022-10-10T03:53:06.207Z,0.00
2022-10-10T03:54:01.195Z,0.00
2022-10-10T03:54:56.297Z,0.00
2022-10-10T03:55:51.399Z,0.00
2022-10-10T03:56:46.514Z,0.00
2022-10-10T03:57:41.594Z,0.00
2022-10-10T03:58:36.763Z,0.00
2022-10-10T03:59:31.715Z,0.00
2022-10-10T04:00:26.840Z,0.00
2022-10-10T04:01:22.260Z,0.00
2022-10-10T04:02:17.462Z,0.00
2022-10-10T04:03:12.863Z,0.00
2022-10-10T04:04:08.013Z,0.00
2022-10-10T04:05:03.412Z,0.00
2022-10-10T04:05:58.649Z,0.00
2022-10-10T04:06:53.881Z,0.00
2022-10-10T04:07:49.156Z,0.00
2022-10-10T04:08:44.477Z,0.00
2022-10-10T04:09:39.732Z,0.00
2022-10-10T04:10:34.983Z,0.00
2022-10-10T04:11:30.272Z,0.00
2022-10-10T04:12:25.489Z,0.00
2022-10-10T04:13:20.822Z,0.00
2022-10-10T04:14:15.990Z,0.00
2022-10-10T04:15:11.378Z,0.00
2022-10-10T04:16:06.800Z,0.00
2022-10-10T04:17:03.436Z,0.00
2022-10-10T04:17:57.971Z,0.00
2022-10-10T04:18:53.220Z,0.00
2022-10-10T04:19:48.446Z,0.00
2022-10-10T04:20:43.687Z,0.00
2022-10-10T04:21:38.971Z,0.00
2022-10-10T04:22:34.191Z,0.00
2022-10-10T04:23:29.696Z,0.00
2022-10-10T04:24:24.792Z,0.00
2022-10-10T04:25:20.015Z,0.00
2022-10-10T04:26:15.303Z,0.00
2022-10-10T04:27:10.524Z,0.00
2022-10-10T04:28:05.993Z,0.00
2022-10-10T04:29:00.975Z,0.00
2022-10-10T04:29:56.203Z,0.00
2022-10-10T04:30:51.456Z,0.00
2022-10-10T04:31:46.861Z,0.00
2022-10-10T04:32:42.089Z,0.00
2022-10-10T04:33:37.376Z,0.00
2022-10-10T04:34:32.618Z,0.00
2022-10-10T04:35:27.915Z,0.00
2022-10-10T04:36:23.100Z,0.00
2022-10-10T04:37:18.337Z,0.00
2022-10-10T04:38:13.600Z,0.00
2022-10-10T04:39:08.965Z,0.00
2022-10-10T04:40:04.200Z,0.00
2022-10-10T04:40:59.433Z,0.00
2022-10-10T04:41:54.508Z,0.00
2022-10-10T04:42:49.982Z,0.00
2022-10-10T04:43:44.765Z,0.00
2022-10-10T04:44:39.867Z,0.00
2022-10-10T04:45:37.594Z,0.00
2022-10-10T04:46:29.881Z,0.00
2022-10-10T04:47:24.914Z,0.00
2022-10-10T04:48:20.001Z,0.00
2022-10-10T04:49:15.138Z,0.00
2022-10-10T04:50:10.148Z,0.00
2022-10-10T04:51:05.260Z,0.00
2022-10-10T04:52:00.372Z,0.00
2022-10-10T04:52:55.517Z,0.00
2022-10-10T04:53:51.589Z,0.00
2022-10-10T04:54:46.762Z,0.00
2022-10-10T04:55:41.992Z,0.00
2022-10-10T04:56:37.346Z,0.00
2022-10-10T04:57:32.616Z,0.00
2022-10-10T04:58:27.859Z,0.00
2022-10-10T04:59:23.155Z,1.00
2022-10-10T05:00:18.381Z,1.00
2022-10-10T05:01:13.986Z,1.00
2022-10-10T05:02:08.919Z,0.00
2022-10-10T05:03:04.151Z,1.00
2022-10-10T05:03:59.477Z,1.00
2022-10-10T05:04:54.687Z,1.00
2022-10-10T05:05:49.921Z,2.00
2022-10-10T05:06:45.191Z,1.00
2022-10-10T05:07:40.612Z,3.00
2022-10-10T05:08:35.847Z,2.00
2022-10-10T05:09:31.162Z,3.00
2022-10-10T05:10:26.434Z,4.00
2022-10-10T05:11:21.692Z,4.00
2022-10-10T05:12:16.942Z,5.00
2022-10-10T05:13:12.185Z,6.00
2022-10-10T05:14:07.556Z,8.00
2022-10-10T05:15:02.813Z,9.00
2022-10-10T05:15:58.267Z,12.00
2022-10-10T05:16:53.474Z,15.00
2022-10-10T05:17:48.776Z,18.00
2022-10-10T05:18:44.078Z,22.00
2022-10-10T05:19:39.389Z,26.00
2022-10-10T05:20:34.819Z,28.00
2022-10-10T05:21:30.026Z,32.00
2022-10-10T05:22:25.307Z,37.00
2022-10-10T05:23:20.677Z,43.00
2022-10-10T05:24:16.086Z,52.00
2022-10-10T05:25:11.385Z,57.00
2022-10-10T05:26:06.725Z,61.00
2022-10-10T05:27:02.042Z,74.00
2022-10-10T05:27:57.400Z,81.00
2022-10-10T05:28:52.674Z,90.00
2022-10-10T05:29:48.016Z,104.00
2022-10-10T05:30:43.421Z,112.00
2022-10-10T05:31:38.787Z,125.00
2022-10-10T05:32:34.321Z,134.00
2022-10-10T05:33:29.576Z,144.00
2022-10-10T05:34:25.014Z,163.00
2022-10-10T05:35:20.369Z,166.00
2022-10-10T05:36:15.731Z,182.00
2022-10-10T05:37:11.089Z,199.00
2022-10-10T05:38:06.551Z,214.00
2022-10-10T05:39:02.009Z,223.00
2022-10-10T05:39:57.424Z,253.00
2022-10-10T05:40:52.468Z,279.00
2022-10-10T05:41:47.505Z,289.00
2022-10-10T05:42:42.683Z,304.00
2022-10-10T05:43:37.782Z,325.00
2022-10-10T05:44:32.793Z,317.00
2022-10-10T05:45:27.818Z,337.00
2022-10-10T05:46:22.878Z,371.00
2022-10-10T05:47:17.996Z,381.00
2022-10-10T05:48:13.050Z,370.00
2022-10-10T05:49:08.110Z,384.00
2022-10-10T05:50:04.340Z,389.00
2022-10-10T05:50:59.323Z,401.00
2022-10-10T05:51:54.335Z,419.00
2022-10-10T05:52:49.844Z,429.00
2022-10-10T05:53:44.509Z,428.00
2022-10-10T05:54:39.537Z,444.00
2022-10-10T05:55:34.604Z,456.00
2022-10-10T05:56:30.009Z,463.00
2022-10-10T05:57:25.730Z,464.00
2022-10-10T05:58:20.964Z,465.00
2022-10-10T05:59:16.353Z,466.00
2022-10-10T06:00:11.822Z,513.00
2022-10-10T06:01:07.181Z,530.00
2022-10-10T06:02:02.623Z,619.00
2022-10-10T06:02:57.999Z,633.00
2022-10-10T06:03:53.226Z,665.00
2022-10-10T06:04:48.592Z,728.00
2022-10-10T06:05:44.499Z,782.00
2022-10-10T06:06:40.062Z,826.00
2022-10-10T06:07:52.312Z,846.00
2022-10-10T06:08:31.645Z,888.00
2022-10-10T06:09:26.076Z,929.00
2022-10-10T06:10:21.438Z,935.00
2022-10-10T06:11:16.962Z,1020.00
2022-10-10T06:12:12.275Z,1032.00
2022-10-10T06:13:07.680Z,1041.00
2022-10-10T06:14:03.107Z,1140.00
2022-10-10T06:14:58.507Z,1123.00
2022-10-10T06:15:53.921Z,1148.00
2022-10-10T06:16:49.335Z,1252.00
2022-10-10T06:19:14.668Z,1208.00
2022-10-10T06:20:05.531Z,1286.00
2022-10-10T06:21:00.945Z,1261.00
2022-10-10T06:21:56.391Z,1337.00
2022-10-10T06:22:52.010Z,1362.00
2022-10-10T06:23:47.189Z,1478.00
2022-10-10T06:24:42.718Z,1605.00
2022-10-10T06:25:40.845Z,1685.00
2022-10-10T06:26:33.841Z,1671.00
2022-10-10T06:27:29.174Z,1817.00
2022-10-10T06:28:24.846Z,1840.00
2022-10-10T06:29:20.285Z,1961.00
2022-10-10T06:30:15.784Z,1955.00
2022-10-10T06:31:11.309Z,2013.00
2022-10-10T06:32:06.804Z,2056.00
2022-10-10T06:33:02.356Z,2165.00
2022-10-10T06:33:57.853Z,2094.00
2022-10-10T06:34:53.345Z,2127.00
2022-10-10T06:35:48.864Z,2177.00
2022-10-10T06:36:44.371Z,2243.00
2022-10-10T06:37:39.926Z,2215.00
2022-10-10T06:38:35.454Z,2288.00
2022-10-10T06:39:31.075Z,2369.00
2022-10-10T06:40:26.456Z,2527.00
2022-10-10T06:41:22.029Z,2587.00
2022-10-10T06:42:17.521Z,2599.00
2022-10-10T06:43:13.036Z,2637.00
2022-10-10T06:44:08.603Z,2623.00
2022-10-10T06:45:04.118Z,2588.00
2022-10-10T06:45:59.671Z,2666.00
2022-10-10T06:46:55.066Z,2771.00
2022-10-10T06:47:50.696Z,2735.00
2022-10-10T06:48:46.188Z,2734.00
2022-10-10T06:49:41.707Z,3000.00
2022-10-10T06:50:37.212Z,3224.00
2022-10-10T06:51:32.750Z,3247.00
2022-10-10T06:52:28.112Z,3401.00
2022-10-10T06:53:23.615Z,3411.00
2022-10-10T06:54:19.116Z,3507.00
2022-10-10T06:55:14.678Z,3770.00
2022-10-10T06:56:10.038Z,3760.00
2022-10-10T06:57:05.537Z,4002.00
2022-10-10T06:58:01.062Z,4036.00
2022-10-10T06:58:56.569Z,3933.00
2022-10-10T06:59:52.052Z,4247.00
2022-10-10T07:00:47.618Z,4532.00
2022-10-10T07:01:43.149Z,4608.00
2022-10-10T07:02:38.655Z,4579.00
2022-10-10T07:03:34.207Z,4673.00
2022-10-10T07:04:29.604Z,4631.00
2022-10-10T07:05:25.113Z,5079.00
2022-10-10T07:06:20.646Z,4879.00
2022-10-10T07:07:16.004Z,4746.00
2022-10-10T07:08:11.493Z,5247.00
2022-10-10T07:09:07.024Z,5182.00
2022-10-10T07:10:02.539Z,5162.00
2022-10-10T07:10:58.024Z,4985.00
2022-10-10T07:11:53.568Z,5227.00
2022-10-10T07:12:49.053Z,5262.00
2022-10-10T07:13:44.562Z,5093.00
2022-10-10T07:14:40.113Z,5327.00
2022-10-10T07:15:35.648Z,5235.00
2022-10-10T07:16:30.999Z,5382.00
2022-10-10T07:17:26.548Z,5357.00
2022-10-10T07:18:22.053Z,5509.00
2022-10-10T07:19:17.554Z,5519.00
2022-10-10T07:20:13.072Z,5505.00
2022-10-10T07:21:08.694Z,5574.00
2022-10-10T07:22:04.092Z,5506.00
2022-10-10T07:22:59.616Z,5494.00
2022-10-10T07:23:54.999Z,5480.00
2022-10-10T07:24:50.491Z,5312.00
2022-10-10T07:25:46.058Z,5345.00
2022-10-10T07:26:41.547Z,5209.00
2022-10-10T07:27:37.076Z,5227.00
2022-10-10T07:28:32.658Z,5311.00
2022-10-10T07:29:28.155Z,5142.00
2022-10-10T07:30:23.544Z,5468.00
2022-10-10T07:31:19.093Z,5673.00
2022-10-10T07:32:14.595Z,5741.00
2022-10-10T07:33:10.000Z,5989.00
2022-10-10T07:34:05.556Z,6152.00
2022-10-10T07:35:01.025Z,6208.00
2022-10-10T07:35:56.584Z,6419.00
2022-10-10T07:36:51.965Z,6691.00
2022-10-10T07:37:47.615Z,6513.00
2022-10-10T07:38:43.113Z,6759.00
2022-10-10T07:39:38.661Z,6790.00
2022-10-10T07:40:34.058Z,7158.00
2022-10-10T07:41:29.471Z,7115.00
2022-10-10T07:42:25.152Z,7307.00
2022-10-10T07:43:20.670Z,7563.00
2022-10-10T07:44:16.200Z,7595.00
2022-10-10T07:45:11.760Z,7994.00
2022-10-10T07:46:12.199Z,8380.00
2022-10-10T07:47:02.838Z,8821.00
2022-10-10T07:47:58.399Z,8884.00
2022-10-10T07:48:53.939Z,9522.00
2022-10-10T07:49:49.451Z,10187.00
2022-10-10T07:50:44.902Z,10268.00
2022-10-10T07:51:40.321Z,10462.00
2022-10-10T07:52:35.742Z,10814.00
2022-10-10T07:53:31.196Z,10879.00
2022-10-10T07:54:26.652Z,10937.00
2022-10-10T07:55:22.089Z,10959.00
2022-10-10T07:56:17.419Z,10888.00
2022-10-10T07:57:12.854Z,10862.00
2022-10-10T07:58:08.302Z,10599.00
2022-10-10T07:59:03.768Z,10263.00
2022-10-10T07:59:59.177Z,10115.00
2022-10-10T08:00:54.747Z,9816.00
2022-10-10T08:01:50.335Z,9805.00
2022-10-10T08:02:45.714Z,9754.00
2022-10-10T08:03:41.241Z,9747.00
2022-10-10T08:04:36.806Z,9494.00
2022-10-10T08:05:32.316Z,9140.00
2022-10-10T08:06:27.843Z,8973.00
2022-10-10T08:07:23.450Z,8927.00
2022-10-10T08:08:18.811Z,8405.00
2022-10-10T08:09:14.232Z,8228.00
2022-10-10T08:10:09.744Z,8242.00
2022-10-10T08:11:05.263Z,8324.00
2022-10-10T08:12:00.815Z,8315.00
2022-10-10T08:12:56.308Z,8373.00
2022-10-10T08:13:51.791Z,8285.00
2022-10-10T08:14:47.499Z,8556.00
2022-10-10T08:15:43.000Z,8918.00
2022-10-10T08:16:38.513Z,8608.00
2022-10-10T08:17:34.039Z,8688.00
2022-10-10T08:18:29.538Z,8886.00
2022-10-10T08:19:25.070Z,9130.00
2022-10-10T08:20:20.470Z,9251.00
2022-10-10T08:21:15.991Z,9406.00
2022-10-10T08:22:11.616Z,9191.00
2022-10-10T08:23:07.025Z,9648.00
2022-10-10T08:24:02.569Z,9858.00
2022-10-10T08:24:58.118Z,10336.00
2022-10-10T08:25:53.525Z,10526.00
2022-10-10T08:26:48.789Z,10543.00
2022-10-10T08:27:44.228Z,10683.00
2022-10-10T08:28:39.595Z,10739.00
2022-10-10T08:29:34.953Z,10785.00
2022-10-10T08:30:30.448Z,11253.00
2022-10-10T08:31:25.745Z,11614.00
2022-10-10T08:32:21.162Z,11734.00
2022-10-10T08:33:16.626Z,12171.00
2022-10-10T08:34:12.056Z,12348.00
2022-10-10T08:35:07.474Z,12506.00
2022-10-10T08:36:02.918Z,12290.00
2022-10-10T08:36:58.313Z,12499.00
2022-10-10T08:37:53.724Z,12162.00
2022-10-10T08:38:49.081Z,12196.00
2022-10-10T08:39:45.121Z,12426.00
2022-10-10T08:40:39.885Z,12866.00
2022-10-10T08:41:35.336Z,13122.00
2022-10-10T08:42:30.883Z,13532.00
2022-10-10T08:43:26.168Z,14426.00
2022-10-10T08:44:21.562Z,15356.00
2022-10-10T08:45:17.137Z,16197.00
2022-10-10T08:46:12.439Z,16824.00
2022-10-10T08:47:07.929Z,17912.00
2022-10-10T08:48:03.254Z,20080.00
2022-10-10T08:48:58.583Z,20296.00
2022-10-10T08:49:54.128Z,18416.00
2022-10-10T08:50:49.558Z,18328.00
2022-10-10T08:51:45.022Z,18080.00
2022-10-10T08:52:40.448Z,17528.00
2022-10-10T08:53:35.890Z,17384.00
2022-10-10T08:54:31.318Z,17200.00
2022-10-10T08:55:26.741Z,17728.00
2022-10-10T08:56:22.185Z,18488.00
2022-10-10T08:57:17.646Z,21064.00
2022-10-10T08:58:12.916Z,17776.00
2022-10-10T08:59:08.236Z,16680.00
2022-10-10T09:00:03.777Z,15749.00
2022-10-10T09:00:59.374Z,15753.00
2022-10-10T09:02:18.485Z,15721.00
2022-10-10T09:02:54.030Z,15788.00
2022-10-10T09:03:45.658Z,17496.00
2022-10-10T09:04:41.073Z,17560.00
2022-10-10T09:05:36.506Z,16154.00
2022-10-10T09:06:31.957Z,15732.00
2022-10-10T09:07:27.503Z,15538.00
2022-10-10T09:08:26.348Z,14403.00
2022-10-10T09:09:18.202Z,14093.00
2022-10-10T09:10:13.771Z,13704.00
2022-10-10T09:11:09.111Z,13964.00
2022-10-10T09:12:04.539Z,14009.00
2022-10-10T09:12:59.990Z,13659.00
2022-10-10T09:13:55.590Z,12630.00
2022-10-10T09:14:51.039Z,12166.00
2022-10-10T09:15:46.515Z,11931.00
2022-10-10T09:16:41.841Z,12141.00
2022-10-10T09:17:37.248Z,12601.00
2022-10-10T09:18:32.680Z,13171.00
2022-10-10T09:19:28.168Z,14124.00
2022-10-10T09:20:23.475Z,13566.00
2022-10-10T09:21:19.160Z,13077.00
2022-10-10T09:22:14.339Z,12243.00
2022-10-10T09:23:09.769Z,11341.00
2022-10-10T09:24:05.190Z,10531.00
2022-10-10T09:25:00.636Z,9865.00
2022-10-10T09:25:56.162Z,9920.00
2022-10-10T09:26:51.682Z,9705.00
2022-10-10T09:27:47.202Z,9976.00
2022-10-10T09:28:42.822Z,9116.00
2022-10-10T09:29:38.227Z,9054.00
2022-10-10T09:30:33.894Z,9134.00
2022-10-10T09:31:29.392Z,9477.00
2022-10-10T09:32:24.964Z,10124.00
2022-10-10T09:33:20.373Z,10562.00
2022-10-10T09:34:15.785Z,10690.00
2022-10-10T09:35:11.250Z,11374.00
2022-10-10T09:36:06.695Z,11850.00
2022-10-10T09:37:02.103Z,12309.00
2022-10-10T09:37:57.567Z,12254.00
2022-10-10T09:38:52.993Z,12500.00
2022-10-10T09:39:48.416Z,12167.00
2022-10-10T09:40:43.715Z,11695.00
2022-10-10T09:41:39.149Z,11223.00
2022-10-10T09:42:34.601Z,10662.00
2022-10-10T09:43:30.031Z,10465.00
2022-10-10T09:44:25.476Z,10331.00
2022-10-10T09:45:21.041Z,8946.00
2022-10-10T09:46:16.561Z,9013.00
2022-10-10T09:47:12.080Z,8853.00
2022-10-10T09:48:07.630Z,8841.00
2022-10-10T09:49:03.123Z,8919.00
2022-10-10T09:49:58.569Z,8965.00
2022-10-10T09:50:53.999Z,8947.00
2022-10-10T09:51:49.633Z,8835.00
2022-10-10T09:52:45.170Z,8459.00
2022-10-10T09:53:40.607Z,8839.00
2022-10-10T09:54:36.256Z,9061.00
2022-10-10T09:55:31.777Z,9931.00
2022-10-10T09:56:27.344Z,9970.00
2022-10-10T09:57:22.875Z,10772.00
2022-10-10T09:58:18.317Z,11196.00
2022-10-10T09:59:13.744Z,11862.00
2022-10-10T10:00:09.154Z,12306.00
2022-10-10T10:01:04.717Z,13407.00
2022-10-10T10:02:00.137Z,13847.00
2022-10-10T10:02:55.410Z,14250.00
2022-10-10T10:03:52.497Z,14991.00
2022-10-10T10:04:46.290Z,15470.00
2022-10-10T10:05:41.837Z,15840.00
2022-10-10T10:06:37.265Z,15490.00
2022-10-10T10:07:32.539Z,14580.00
2022-10-10T10:08:28.033Z,13994.00
2022-10-10T10:09:23.528Z,13921.00
2022-10-10T10:10:19.060Z,12719.00
2022-10-10T10:11:14.645Z,12718.00
2022-10-10T10:12:10.073Z,13205.00
2022-10-10T10:13:05.602Z,13629.00
2022-10-10T10:14:00.975Z,13876.00
2022-10-10T10:14:56.432Z,14885.00
2022-10-10T10:15:51.979Z,16577.00
2022-10-10T10:16:47.393Z,16213.00
2022-10-10T10:17:42.826Z,16816.00
2022-10-10T10:18:38.361Z,16888.00
2022-10-10T10:19:33.943Z,17512.00
2022-10-10T10:20:29.384Z,16880.00
2022-10-10T10:21:24.653Z,16164.00
2022-10-10T10:22:23.250Z,14975.00
2022-10-10T10:23:16.629Z,14404.00
2022-10-10T10:24:11.092Z,14149.00
2022-10-10T10:25:06.359Z,15011.00
2022-10-10T10:26:02.130Z,16011.00
2022-10-10T10:26:57.478Z,17360.00
2022-10-10T10:27:52.939Z,17840.00
2022-10-10T10:28:48.379Z,18000.00
2022-10-10T10:29:43.770Z,18424.00
2022-10-10T10:30:39.179Z,17856.00
2022-10-10T10:31:34.729Z,16385.00
2022-10-10T10:32:30.179Z,14901.00
2022-10-10T10:33:25.607Z,14722.00
2022-10-10T10:34:20.939Z,15376.00
2022-10-10T10:35:16.335Z,15628.00
2022-10-10T10:36:11.748Z,16217.00
2022-10-10T10:37:10.356Z,17944.00
2022-10-10T10:38:03.569Z,17008.00
2022-10-10T10:38:58.015Z,17472.00
2022-10-10T10:39:53.434Z,17520.00
2022-10-10T10:40:48.877Z,17256.00
2022-10-10T10:41:44.548Z,17992.00
2022-10-10T10:42:40.004Z,17600.00
2022-10-10T10:43:35.497Z,16656.00
2022-10-10T10:44:31.144Z,17592.00
2022-10-10T10:45:26.584Z,16064.00
2022-10-10T10:46:22.098Z,14822.00
2022-10-10T10:47:17.726Z,13843.00
2022-10-10T10:48:13.223Z,12705.00
2022-10-10T10:49:08.733Z,11855.00
2022-10-10T10:50:04.334Z,11212.00
2022-10-10T10:51:00.001Z,10803.00
2022-10-10T10:51:55.155Z,10312.00
2022-10-10T10:52:50.962Z,10883.00
2022-10-10T10:53:46.354Z,11322.00
2022-10-10T10:54:42.437Z,12084.00
2022-10-10T10:55:39.398Z,12810.00
2022-10-10T10:57:36.941Z,15223.00
2022-10-10T11:00:22.023Z,17584.00
2022-10-10T11:00:25.615Z,17680.00
2022-10-10T11:01:28.190Z,18152.00
2022-10-10T11:02:06.877Z,18544.00
2022-10-10T11:03:20.614Z,18040.00
2022-10-10T11:05:16.158Z,18152.00
2022-10-10T11:05:22.745Z,17968.00
2022-10-10T11:05:48.777Z,17568.00
2022-10-10T11:06:54.274Z,17952.00
2022-10-10T11:07:39.614Z,18304.00
2022-10-10T11:08:34.020Z,17616.00
2022-10-10T11:09:49.145Z,17504.00
2022-10-10T11:10:26.136Z,16968.00
2022-10-10T11:11:20.718Z,16371.00
2022-10-10T11:12:16.087Z,16136.00
2022-10-10T11:13:11.694Z,16616.00
2022-10-10T11:14:07.106Z,17512.00
2022-10-10T11:15:02.755Z,17304.00
2022-10-10T11:16:08.594Z,17256.00
2022-10-10T11:16:54.757Z,17592.00
2022-10-10T11:17:49.298Z,18112.00
2022-10-10T11:18:44.805Z,20216.00
2022-10-10T11:19:40.515Z,21872.00
2022-10-10T11:20:36.043Z,20872.00
2022-10-10T11:21:31.547Z,19864.00
2022-10-10T11:22:27.059Z,18888.00
2022-10-10T11:23:22.573Z,20088.00
2022-10-10T11:24:18.065Z,20328.00
2022-10-10T11:25:13.470Z,21112.00
2022-10-10T11:26:08.902Z,22168.00
2022-10-10T11:27:04.321Z,23800.00
2022-10-10T11:27:59.838Z,22712.00
2022-10-10T11:28:55.272Z,26264.00
2022-10-10T11:29:50.730Z,26584.00
2022-10-10T11:30:46.046Z,26776.00
2022-10-10T11:31:41.572Z,26960.00
2022-10-10T11:32:37.510Z,22600.00
2022-10-10T11:33:32.654Z,20232.00
2022-10-10T11:34:28.120Z,19024.00
2022-10-10T11:35:23.629Z,18368.00
2022-10-10T11:36:19.136Z,19696.00
2022-10-10T11:37:14.823Z,16768.00
2022-10-10T11:38:10.112Z,16212.00
2022-10-10T11:39:05.543Z,17464.00